Time;durP1;ratioP1;P1;durP2;ratioP2;P2;SDS_P1;SDS_P2;PMS_P1;PMS_P2;Temp;Humidity;BMP_temperature;BMP_pressure;BME280_temperature;BME280_humidity;BME280_pressure;Samples;Min_cycle;Max_cycle;Signal;HPM_P1;HPM_P2
2023/11/16 00:00:41;;;;;;;;;;;;;;;5.77;100.00;96814.84;5102382;28;20222;-77
2023/11/16 00:03:07;;;;;;;;;;;;;;;5.74;100.00;96817.81;5103228;28;19952;-78
2023/11/16 00:05:36;;;;;;;;;;;;;;;5.76;100.00;96813.25;5102780;28;19966;-78
2023/11/16 00:08:07;;;;;;;;;;;;;;;5.77;100.00;96814.03;5118927;28;19939;-76
2023/11/16 00:10:34;;;;;;;;;;;;;;;5.78;100.00;96813.06;5104908;28;19935;-87
2023/11/16 00:13:01;;;;;;;;;;;;;;;5.79;100.00;96818.06;5086357;28;19942;-71
2023/11/16 00:15:27;;;;;;;;;;;;;;;5.80;100.00;96803.28;5119949;28;19939;-72
2023/11/16 00:17:53;;;;;;;;;;;;;;;5.82;100.00;96806.53;5117742;28;19944;-71
2023/11/16 00:20:19;;;;;;;;;;;;;;;5.83;100.00;96810.72;5119912;28;19934;-72
2023/11/16 00:22:45;;;;;;;;;;;;;;;5.85;100.00;96809.56;5102685;28;19967;-72
2023/11/16 00:25:13;;;;;;;;;;;;;;;5.87;100.00;96812.78;5119623;28;19934;-72
2023/11/16 00:27:39;;;;;;;;;;;;;;;5.87;100.00;96812.00;5119134;28;19989;-72
2023/11/16 00:30:05;;;;;;;;;;;;;;;5.88;100.00;96808.41;5103286;28;20275;-74
2023/11/16 00:32:32;;;;;;;;;;;;;;;5.88;100.00;96806.63;5118885;28;19956;-77
2023/11/16 00:34:58;;;;;;;;;;;;;;;5.88;100.00;96809.22;5102413;28;19942;-77
2023/11/16 00:37:24;;;;;;;;;;;;;;;5.85;100.00;96804.34;5102637;28;19965;-76
2023/11/16 00:39:50;;;;;;;;;;;;;;;5.84;100.00;96796.75;5107254;28;19949;-76
2023/11/16 00:42:22;;;;;;;;;;;;;;;5.82;100.00;96794.31;5107387;28;19953;-76
2023/11/16 00:44:49;;;;;;;;;;;;;;;5.82;100.00;96799.50;5106965;28;19959;-75
2023/11/16 00:47:18;;;;;;;;;;;;;;;5.82;100.00;96796.91;5122798;28;19940;-78
2023/11/16 00:49:47;;;;;;;;;;;;;;;5.77;100.00;96796.63;5123232;28;20093;-82
2023/11/16 00:52:14;;;;;;;;;;;;;;;5.70;100.00;96788.72;5105760;28;19951;-87
2023/11/16 00:54:40;;;;;;;;;;;;;;;5.73;100.00;96795.38;5123483;28;19949;-90
2023/11/16 00:57:06;;;;;;;;;;;;;;;5.74;100.00;96785.78;5122675;28;19936;-85
2023/11/16 00:59:32;;;;;;;;;;;;;;;5.73;100.00;96790.16;5123476;28;19949;-91
2023/11/16 01:01:58;;;;;;;;;;;;;;;5.74;100.00;96791.78;5123112;28;19958;-85
2023/11/16 01:04:25;;;;;;;;;;;;;;;5.75;100.00;96792.59;5123211;28;19945;-88
2023/11/16 01:06:50;;;;;;;;;;;;;;;5.75;100.00;96785.59;5122579;28;19946;-76
2023/11/16 01:09:17;;;;;;;;;;;;;;;5.79;100.00;96786.03;5107789;28;19976;-72
2023/11/16 01:11:43;;;;;;;;;;;;;;;5.79;100.00;96784.25;5123886;28;19935;-72
2023/11/16 01:14:09;;;;;;;;;;;;;;;5.82;100.00;96775.28;5123633;28;19943;-72
2023/11/16 01:16:40;;;;;;;;;;;;;;;5.84;100.00;96775.91;5122165;28;19951;-72
2023/11/16 01:19:08;;;;;;;;;;;;;;;5.86;100.00;96771.34;5122742;28;19941;-71
2023/11/16 01:21:41;;;;;;;;;;;;;;;5.86;100.00;96779.94;5107311;28;19957;-71
2023/11/16 01:24:08;;;;;;;;;;;;;;;5.85;100.00;96780.94;5107262;28;19948;-74
2023/11/16 01:26:39;;;;;;;;;;;;;;;5.86;100.00;96782.56;5105075;28;20251;-72
2023/11/16 01:29:10;;;;;;;;;;;;;;;5.87;100.00;96778.16;5106513;28;19940;-88
2023/11/16 01:31:39;;;;;;;;;;;;;;;5.84;100.00;96784.53;5088072;28;19938;-84
2023/11/16 01:34:12;;;;;;;;;;;;;;;5.83;100.00;96784.69;5121851;28;20255;-85
2023/11/16 01:36:38;;;;;;;;;;;;;;;5.83;100.00;96779.50;5105990;28;20177;-84
2023/11/16 01:39:04;;;;;;;;;;;;;;;5.81;100.00;96764.06;5105332;28;19953;-85
2023/11/16 01:41:30;;;;;;;;;;;;;;;5.80;100.00;96777.25;5104599;28;20040;-84
2023/11/16 01:43:56;;;;;;;;;;;;;;;5.80;100.00;96759.84;5122621;28;19951;-77
2023/11/16 01:46:26;;;;;;;;;;;;;;;5.81;100.00;96752.84;5122338;28;19946;-74
2023/11/16 01:48:54;;;;;;;;;;;;;;;5.83;100.00;96756.88;5087272;28;19946;-73
2023/11/16 01:51:21;;;;;;;;;;;;;;;5.87;100.00;96759.94;5121342;28;19942;-73
2023/11/16 01:53:54;;;;;;;;;;;;;;;5.87;100.00;96760.72;5121767;28;19942;-74
2023/11/16 01:56:20;;;;;;;;;;;;;;;5.88;100.00;96756.34;5107343;28;19935;-74
2023/11/16 01:58:50;;;;;;;;;;;;;;;5.89;100.00;96769.16;5105173;28;20225;-73
2023/11/16 02:01:17;;;;;;;;;;;;;;;5.90;100.00;96767.41;5105770;28;19950;-77
2023/11/16 02:03:44;;;;;;;;;;;;;;;5.89;100.00;96761.34;5106073;28;20246;-78
2023/11/16 02:06:09;;;;;;;;;;;;;;;5.87;100.00;96765.94;5106226;28;19940;-73
2023/11/16 02:08:36;;;;;;;;;;;;;;;5.86;100.00;96756.53;5088257;28;19944;-74
2023/11/16 02:11:02;;;;;;;;;;;;;;;5.84;100.00;96755.91;5121858;28;20254;-74
2023/11/16 02:13:28;;;;;;;;;;;;;;;5.86;100.00;96760.94;5105312;28;20218;-74
2023/11/16 02:15:55;;;;;;;;;;;;;;;5.87;100.00;96755.53;5105113;28;19934;-75
2023/11/16 02:18:22;;;;;;;;;;;;;;;5.86;100.00;96761.72;5121733;28;19936;-74
2023/11/16 02:20:48;;;;;;;;;;;;;;;5.85;100.00;96754.09;5105139;28;19952;-78
2023/11/16 02:23:20;;;;;;;;;;;;;;;5.86;100.00;96755.72;5105686;28;19960;-75
2023/11/16 02:25:45;;;;;;;;;;;;;;;5.88;100.00;96758.97;5121569;28;19948;-75
2023/11/16 02:28:12;;;;;;;;;;;;;;;5.88;100.00;96758.97;5121827;28;19946;-75
2023/11/16 02:30:38;;;;;;;;;;;;;;;5.89;100.00;96752.75;5105519;28;19943;-76
2023/11/16 02:33:06;;;;;;;;;;;;;;;5.90;100.00;96759.59;5104243;28;20012;-75
2023/11/16 02:35:33;;;;;;;;;;;;;;;5.90;100.00;96752.56;5103496;28;19955;-75
2023/11/16 02:37:59;;;;;;;;;;;;;;;5.90;100.00;96757.78;5104731;28;19971;-76
2023/11/16 02:40:25;;;;;;;;;;;;;;;5.92;100.00;96754.19;5103420;28;19952;-79
2023/11/16 02:42:52;;;;;;;;;;;;;;;5.93;100.00;96746.19;5121443;28;19964;-78
2023/11/16 02:45:24;;;;;;;;;;;;;;;5.94;100.00;96736.59;5105327;28;20280;-78
2023/11/16 02:47:50;;;;;;;;;;;;;;;5.95;100.00;96736.44;5105014;28;19936;-77
2023/11/16 02:50:16;;;;;;;;;;;;;;;5.96;100.00;96727.63;5121278;28;19970;-78
2023/11/16 02:52:43;;;;;;;;;;;;;;;5.97;100.00;96720.66;5087310;28;19958;-78
2023/11/16 02:55:09;;;;;;;;;;;;;;;5.98;100.00;96714.44;5120206;28;19944;-76
2023/11/16 02:57:35;;;;;;;;;;;;;;;5.99;100.00;96724.69;5121111;28;19944;-78
2023/11/16 03:00:01;;;;;;;;;;;;;;;6.02;100.00;96724.31;5104878;28;19948;-71
2023/11/16 03:02:27;;;;;;;;;;;;;;;6.04;100.00;96721.53;5102924;28;19954;-71
2023/11/16 03:04:54;;;;;;;;;;;;;;;6.06;100.00;96715.13;5120033;28;19946;-71
2023/11/16 03:07:19;;;;;;;;;;;;;;;6.08;100.00;96714.97;5104926;28;19938;-71
2023/11/16 03:09:46;;;;;;;;;;;;;;;6.09;100.00;96714.00;5119784;28;19984;-71
2023/11/16 03:12:13;;;;;;;;;;;;;;;6.10;100.00;96697.38;5120550;28;19950;-71
2023/11/16 03:14:39;;;;;;;;;;;;;;;6.12;100.00;96695.38;5104110;28;19943;-87
2023/11/16 03:17:06;;;;;;;;;;;;;;;6.12;100.00;96698.00;5120489;28;20274;-84
2023/11/16 03:19:34;;;;;;;;;;;;;;;6.14;100.00;96700.41;5120528;28;19942;-85
2023/11/16 03:22:03;;;;;;;;;;;;;;;6.15;100.00;96712.44;5120106;28;19960;-87
2023/11/16 03:24:30;;;;;;;;;;;;;;;6.17;100.00;96710.47;5119665;28;19934;-85
2023/11/16 03:26:56;;;;;;;;;;;;;;;6.16;100.00;96691.44;5104441;28;19941;-86
2023/11/16 03:29:22;;;;;;;;;;;;;;;6.13;100.00;96673.56;5102611;28;20174;-86
2023/11/16 03:31:47;;;;;;;;;;;;;;;6.12;100.00;96679.75;5104366;28;20126;-85
2023/11/16 03:34:13;;;;;;;;;;;;;;;6.13;100.00;96675.34;5120997;28;19936;-77
2023/11/16 03:36:39;;;;;;;;;;;;;;;6.14;100.00;96672.56;5120427;28;19935;-82
2023/11/16 03:39:05;;;;;;;;;;;;;;;6.14;100.00;96662.16;5086248;28;19942;-81
2023/11/16 03:41:33;;;;;;;;;;;;;;;6.16;100.00;96651.56;5103479;28;19971;-82
2023/11/16 03:43:59;;;;;;;;;;;;;;;6.17;100.00;96653.16;5119694;28;19975;-84
2023/11/16 03:46:25;;;;;;;;;;;;;;;6.19;100.00;96651.19;5104176;28;19939;-85
2023/11/16 03:48:51;;;;;;;;;;;;;;;6.20;100.00;96655.41;5119294;28;20157;-84
2023/11/16 03:51:18;;;;;;;;;;;;;;;6.21;100.00;96657.81;5103739;28;20126;-83
2023/11/16 03:53:44;;;;;;;;;;;;;;;6.22;100.00;96672.47;5104277;28;20229;-89
2023/11/16 03:56:10;;;;;;;;;;;;;;;6.22;100.00;96669.88;5119879;28;19947;-74
2023/11/16 03:58:36;;;;;;;;;;;;;;;6.22;100.00;96675.06;5119143;28;19942;-74
2023/11/16 04:01:02;;;;;;;;;;;;;;;6.22;100.00;96664.66;5104046;28;19948;-75
2023/11/16 04:03:28;;;;;;;;;;;;;;;6.23;100.00;96657.63;5103622;28;19955;-75
2023/11/16 04:05:55;;;;;;;;;;;;;;;6.22;100.00;96669.06;5119124;28;19973;-75
2023/11/16 04:08:20;;;;;;;;;;;;;;;6.22;100.00;96672.47;5119091;28;19942;-74
2023/11/16 04:10:46;;;;;;;;;;;;;;;6.20;100.00;96669.25;5119420;28;19950;-81
2023/11/16 04:13:12;;;;;;;;;;;;;;;6.21;100.00;96672.63;5118967;28;19942;-78
2023/11/16 04:15:38;;;;;;;;;;;;;;;6.22;100.00;96676.88;5103295;28;20139;-77
2023/11/16 04:18:06;;;;;;;;;;;;;;;6.22;100.00;96669.06;5103824;28;20117;-78
2023/11/16 04:20:32;;;;;;;;;;;;;;;6.23;100.00;96668.06;5103765;28;19966;-79
2023/11/16 04:22:57;;;;;;;;;;;;;;;6.23;100.00;96665.44;5103718;28;19960;-78
2023/11/16 04:25:27;;;;;;;;;;;;;;;6.22;100.00;96664.66;5104531;28;19944;-77
2023/11/16 04:27:59;;;;;;;;;;;;;;;6.23;100.00;96658.44;5119977;28;19944;-79
2023/11/16 04:30:28;;;;;;;;;;;;;;;6.25;100.00;96660.88;5119613;28;19938;-75
2023/11/16 04:32:55;;;;;;;;;;;;;;;6.23;100.00;96653.22;5119270;28;19943;-71
2023/11/16 04:35:21;;;;;;;;;;;;;;;6.24;100.00;96646.25;5119540;28;20012;-71
2023/11/16 04:37:48;;;;;;;;;;;;;;;6.23;100.00;96642.00;5102668;28;19995;-72
2023/11/16 04:40:14;;;;;;;;;;;;;;;6.23;100.00;96637.59;5102906;28;20117;-71
2023/11/16 04:42:43;;;;;;;;;;;;;;;6.23;100.00;96636.81;5102644;28;19988;-71
2023/11/16 04:45:11;;;;;;;;;;;;;;;6.21;100.00;96634.38;5119376;28;20135;-71
2023/11/16 04:47:39;;;;;;;;;;;;;;;6.21;100.00;96633.56;5102833;28;19950;-73
2023/11/16 04:50:06;;;;;;;;;;;;;;;6.20;100.00;96639.78;5118801;28;19941;-71
2023/11/16 04:52:35;;;;;;;;;;;;;;;6.19;100.00;96638.97;5102860;28;19934;-72
2023/11/16 04:55:01;;;;;;;;;;;;;;;6.20;100.00;96639.78;5118444;28;19958;-73
2023/11/16 04:57:27;;;;;;;;;;;;;;;6.20;100.00;96645.81;5118829;28;20134;-71
2023/11/16 04:59:53;;;;;;;;;;;;;;;6.21;100.00;96646.59;5119422;28;19940;-72
2023/11/16 05:02:19;;;;;;;;;;;;;;;6.21;100.00;96649.19;5119788;28;20164;-71
2023/11/16 05:04:46;;;;;;;;;;;;;;;6.21;100.00;96644.00;5103107;28;19942;-71
2023/11/16 05:07:12;;;;;;;;;;;;;;;6.20;100.00;96637.19;5102798;28;20218;-78
2023/11/16 05:09:38;;;;;;;;;;;;;;;6.19;100.00;96630.34;5118541;28;19934;-86
2023/11/16 05:12:05;;;;;;;;;;;;;;;6.16;100.00;96618.50;5118625;28;19940;-86
2023/11/16 05:14:31;;;;;;;;;;;;;;;6.12;100.00;96619.88;5119616;28;19942;-86
2023/11/16 05:16:57;;;;;;;;;;;;;;;6.09;100.00;96615.84;5118857;28;20241;-87
2023/11/16 05:19:23;;;;;;;;;;;;;;;6.08;100.00;96629.03;5119063;28;19950;-86
2023/11/16 05:21:49;;;;;;;;;;;;;;;6.05;100.00;96627.63;5119869;28;19972;-85
2023/11/16 05:24:16;;;;;;;;;;;;;;;6.02;100.00;96632.38;5121958;28;19960;-85
2023/11/16 05:26:44;;;;;;;;;;;;;;;6.00;100.00;96632.56;5107909;28;19989;-87
2023/11/16 05:29:10;;;;;;;;;;;;;;;5.98;100.00;96634.53;5107082;28;19932;-87
2023/11/16 05:31:36;;;;;;;;;;;;;;;5.97;100.00;96622.53;5122886;28;19943;-87
2023/11/16 05:34:03;;;;;;;;;;;;;;;5.94;100.00;96612.44;5107056;28;19936;-87
2023/11/16 05:36:30;;;;;;;;;;;;;;;5.96;100.00;96612.28;5122651;28;19952;-86
2023/11/16 05:38:56;;;;;;;;;;;;;;;5.95;100.00;96627.13;5105997;28;20227;-88
2023/11/16 05:41:22;;;;;;;;;;;;;;;5.95;100.00;96627.13;5123465;28;19945;-88
2023/11/16 05:43:48;;;;;;;;;;;;;;;5.95;100.00;96623.72;5122352;28;19974;-80
2023/11/16 05:46:15;;;;;;;;;;;;;;;5.93;100.00;96620.47;5106791;28;19937;-87
2023/11/16 05:48:41;;;;;;;;;;;;;;;5.90;100.00;96622.44;5122530;28;19947;-87
2023/11/16 05:51:06;;;;;;;;;;;;;;;5.90;100.00;96612.03;5105543;28;20004;-86
2023/11/16 05:53:36;;;;;;;;;;;;;;;5.91;100.00;96605.00;5106590;28;19977;-87
2023/11/16 05:56:02;;;;;;;;;;;;;;;5.93;100.00;96602.25;5105934;28;20137;-84
2023/11/16 05:58:28;;;;;;;;;;;;;;;5.95;100.00;96590.66;5106173;28;19958;-84
2023/11/16 06:00:53;;;;;;;;;;;;;;;5.97;100.00;96586.09;5088367;28;20224;-75
2023/11/16 06:03:26;;;;;;;;;;;;;;;5.98;100.00;96584.28;5106327;28;19956;-77
2023/11/16 06:05:57;;;;;;;;;;;;;;;5.98;100.00;96579.88;5105560;28;19944;-71
2023/11/16 06:08:22;;;;;;;;;;;;;;;6.01;100.00;96566.50;5123074;28;19934;-72
2023/11/16 06:10:48;;;;;;;;;;;;;;;6.02;100.00;96564.69;5105194;28;20123;-71
2023/11/16 06:13:21;;;;;;;;;;;;;;;6.02;100.00;96564.69;5106905;28;20211;-72
2023/11/16 06:15:48;;;;;;;;;;;;;;;6.03;100.00;96559.31;5107009;28;19938;-72
2023/11/16 06:18:14;;;;;;;;;;;;;;;6.03;100.00;96563.72;5121979;28;19944;-72
2023/11/16 06:20:40;;;;;;;;;;;;;;;6.03;100.00;96558.53;5106581;28;19959;-78
2023/11/16 06:23:06;;;;;;;;;;;;;;;6.03;100.00;96558.53;5121860;28;19964;-75
2023/11/16 06:25:32;;;;;;;;;;;;;;;6.02;100.00;96560.28;5122632;28;19949;-76
2023/11/16 06:27:58;;;;;;;;;;;;;;;6.01;100.00;96558.69;5104539;28;19947;-77
2023/11/16 06:30:24;;;;;;;;;;;;;;;5.98;100.00;96553.84;5105836;28;19945;-76
2023/11/16 06:32:49;;;;;;;;;;;;;;;5.99;100.00;96560.69;5106378;28;20007;-77
2023/11/16 06:35:15;;;;;;;;;;;;;;;5.97;100.00;96561.84;5105883;28;20002;-76
2023/11/16 06:37:42;;;;;;;;;;;;;;;5.96;100.00;96561.03;5121709;28;19983;-71
2023/11/16 06:40:09;;;;;;;;;;;;;;;5.95;100.00;96554.22;5105155;28;19950;-74
2023/11/16 06:42:36;;;;;;;;;;;;;;;5.93;100.00;96555.38;5122178;28;19963;-77
2023/11/16 06:45:04;;;;;;;;;;;;;;;5.93;100.00;96542.38;5122207;28;19956;-76
2023/11/16 06:47:32;;;;;;;;;;;;;;;5.92;100.00;96538.94;5121347;28;19937;-77
2023/11/16 06:49:58;;;;;;;;;;;;;;;5.89;100.00;96539.31;5121324;28;20122;-80
2023/11/16 06:52:26;;;;;;;;;;;;;;;5.89;100.00;96542.72;5121419;28;19949;-77
2023/11/16 06:54:55;;;;;;;;;;;;;;;5.88;100.00;96538.53;5121188;28;20136;-77
2023/11/16 06:57:30;;;;;;;;;;;;;;;5.87;100.00;96541.31;5106102;28;20116;-96
2023/11/16 06:59:57;;;;;;;;;;;;;;;5.85;100.00;96535.47;5087189;28;20352;-74
2023/11/16 07:02:23;;;;;;;;;;;;;;;5.84;100.00;96544.28;5104629;28;20170;-75
2023/11/16 07:04:49;;;;;;;;;;;;;;;5.84;100.00;96542.50;5121901;28;19950;-74
2023/11/16 07:07:16;;;;;;;;;;;;;;;5.84;100.00;96536.47;5120928;28;19947;-75
2023/11/16 07:09:46;;;;;;;;;;;;;;;5.87;100.00;96546.50;5120897;28;19946;-74
2023/11/16 07:12:12;;;;;;;;;;;;;;;5.88;100.00;96535.91;5121618;28;19949;-74
2023/11/16 07:14:38;;;;;;;;;;;;;;;5.92;100.00;96522.53;5121234;28;19967;-77
2023/11/16 07:17:04;;;;;;;;;;;;;;;5.94;100.00;96517.94;5122120;28;19944;-94
2023/11/16 07:19:30;;;;;;;;;;;;;;;5.96;100.00;96506.38;5104631;28;19950;-74
2023/11/16 07:21:59;;;;;;;;;;;;;;;6.00;100.00;96514.63;5120627;28;19944;-74
2023/11/16 07:24:25;;;;;;;;;;;;;;;6.01;100.00;96509.22;5105562;28;20134;-74
2023/11/16 07:26:51;;;;;;;;;;;;;;;6.03;100.00;96515.06;5120595;28;19983;-74
2023/11/16 07:29:17;;;;;;;;;;;;;;;6.06;100.00;96512.06;5086438;28;20236;-74
2023/11/16 07:31:43;;;;;;;;;;;;;;;6.09;100.00;96516.13;5103555;28;20031;-74
2023/11/16 07:34:09;;;;;;;;;;;;;;;6.10;100.00;96505.50;5104687;28;19938;-70
2023/11/16 07:36:37;;;;;;;;;;;;;;;6.15;100.00;96502.31;5102929;28;19947;-83
2023/11/16 07:39:04;;;;;;;;;;;;;;;6.18;100.00;96504.56;5103352;28;19971;-85
2023/11/16 07:41:30;;;;;;;;;;;;;;;6.22;100.00;96511.00;5104541;28;20257;-85
2023/11/16 07:44:00;;;;;;;;;;;;;;;6.26;100.00;96508.84;5103197;28;19983;-88
2023/11/16 07:46:26;;;;;;;;;;;;;;;6.33;100.00;96506.28;5103380;28;19940;-85
2023/11/16 07:48:51;;;;;;;;;;;;;;;6.35;100.00;96493.88;5119745;28;19943;-84
2023/11/16 07:51:19;;;;;;;;;;;;;;;6.35;100.00;96484.25;5104039;28;19985;-88
2023/11/16 07:53:51;;;;;;;;;;;;;;;6.36;100.00;96482.44;5120376;28;19943;-72
2023/11/16 07:56:18;;;;;;;;;;;;;;;6.38;100.00;96481.25;5121021;28;19951;-89
2023/11/16 07:58:52;;;;;;;;;;;;;;;6.42;100.00;96477.28;5103255;28;19968;-87
2023/11/16 08:01:22;;;;;;;;;;;;;;;6.46;100.00;96478.50;5120970;28;19952;-87
2023/11/16 08:03:55;;;;;;;;;;;;;;;6.50;100.00;96471.13;5086892;28;20131;-86
2023/11/16 08:06:22;;;;;;;;;;;;;;;6.54;100.00;96461.94;5105060;28;19946;-84
2023/11/16 08:08:49;;;;;;;;;;;;;;;6.55;100.00;96460.13;5119987;28;19945;-84
2023/11/16 08:11:16;;;;;;;;;;;;;;;6.55;100.00;96452.31;5104082;28;19935;-75
2023/11/16 08:13:47;;;;;;;;;;;;;;;6.57;100.00;96452.91;5119932;28;19941;-78
2023/11/16 08:16:20;;;;;;;;;;;;;;;6.59;100.00;96440.50;5104833;28;19953;-78
2023/11/16 08:18:49;;;;;;;;;;;;;;;6.58;100.00;96437.09;5103574;28;19944;-78
2023/11/16 08:21:16;;;;;;;;;;;;;;;6.54;100.00;96430.66;5120425;28;20221;-77
2023/11/16 08:23:43;;;;;;;;;;;;;;;6.53;100.00;96423.84;5120221;28;20225;-78
2023/11/16 08:26:10;;;;;;;;;;;;;;;6.56;100.00;96415.66;5120538;28;19949;-76
2023/11/16 08:28:42;;;;;;;;;;;;;;;6.63;100.00;96421.69;5104061;28;19941;-75
2023/11/16 08:31:12;;;;;;;;;;;;;;;6.68;100.00;96415.91;5120532;28;19942;-71
2023/11/16 08:33:42;;;;;;;;;;;;;;;6.69;100.00;96412.28;5120545;28;19945;-71
2023/11/16 08:36:10;;;;;;;;;;;;;;;6.67;100.00;96406.47;5119698;28;19939;-71
2023/11/16 08:38:42;;;;;;;;;;;;;;;6.66;100.00;96408.28;5102728;28;19975;-71
2023/11/16 08:41:15;;;;;;;;;;;;;;;6.70;100.00;96413.91;5082469;28;20045;-72
2023/11/16 08:43:45;;;;;;;;;;;;;;;6.76;100.00;96414.94;5082139;28;19967;-72
2023/11/16 08:46:20;;;;;;;;;;;;;;;6.75;100.00;96405.50;5065616;28;19935;-77
2023/11/16 08:48:47;;;;;;;;;;;;;;;6.78;100.00;96407.72;5082190;28;19938;-75
2023/11/16 08:51:15;;;;;;;;;;;;;;;6.77;100.00;96400.91;5082290;28;19946;-78
2023/11/16 08:53:43;;;;;;;;;;;;;;;6.75;100.00;96395.88;5064986;28;19944;-78
2023/11/16 08:56:09;;;;;;;;;;;;;;;6.83;100.00;96400.94;5065776;28;19945;-79
2023/11/16 08:58:37;;;;;;;;;;;;;;;7.35;100.00;96392.63;5065899;28;20009;-78
2023/11/16 09:01:05;;;;;;;;;;;;;;;7.92;100.00;96389.44;5086260;28;19940;-78
2023/11/16 09:03:33;;;;;;;;;;;;;;;8.01;100.00;96384.03;5052747;28;19993;-78
2023/11/16 09:06:21;;;;;;;;;;;;;;;7.81;100.00;96379.63;5085474;28;19952;-82
2023/11/16 09:08:48;;;;;;;;;;;;;;;7.57;100.00;96367.97;5069526;28;20215;-86
2023/11/16 09:11:17;;;;;;;;;;;;;;;7.45;100.00;96374.78;5072149;28;19948;-88
2023/11/16 09:13:44;;;;;;;;;;;;;;;7.36;100.00;96376.78;5123185;28;20232;-89
2023/11/16 09:16:10;;;;;;;;;;;;;;;7.25;100.00;96378.19;5123230;28;19944;-88
2023/11/16 09:18:38;;;;;;;;;;;;;;;7.16;100.00;96363.72;5107820;28;20208;-88
2023/11/16 09:21:06;;;;;;;;;;;;;;;7.10;100.00;96357.50;5123390;28;19940;-89
2023/11/16 09:23:33;;;;;;;;;;;;;;;7.06;100.00;96356.28;5107201;28;19956;-76
2023/11/16 09:26:00;;;;;;;;;;;;;;;7.05;100.00;96346.84;5107622;28;19936;-86
2023/11/16 09:28:25;;;;;;;;;;;;;;;7.03;100.00;96345.44;5125667;28;19951;-78
2023/11/16 09:30:51;;;;;;;;;;;;;;;7.04;100.00;96340.03;5109362;28;19943;-78
2023/11/16 09:33:18;;;;;;;;;;;;;;;7.05;100.00;96331.19;5091723;28;19952;-78
2023/11/16 09:35:45;;;;;;;;;;;;;;;7.10;100.00;96341.84;5108556;28;19948;-79
2023/11/16 09:38:11;;;;;;;;;;;;;;;7.12;100.00;96336.44;5125364;28;19977;-79
2023/11/16 09:40:38;;;;;;;;;;;;;;;7.11;100.00;96321.78;5108501;28;20007;-79
2023/11/16 09:43:17;;;;;;;;;;;;;;;7.14;100.00;96318.78;5092066;28;19962;-87
2023/11/16 09:45:50;;;;;;;;;;;;;;;7.10;100.00;96315.78;5092389;28;19960;-87
2023/11/16 09:48:20;;;;;;;;;;;;;;;7.11;100.00;96311.34;5109087;28;20100;-86
2023/11/16 09:50:48;;;;;;;;;;;;;;;7.13;100.00;96305.94;5108237;28;19949;-86
2023/11/16 09:53:16;;;;;;;;;;;;;;;7.11;100.00;96286.06;5125809;28;20205;-85
2023/11/16 09:55:56;;;;;;;;;;;;;;;7.13;100.00;96285.88;5108340;28;19958;-87
2023/11/16 09:58:28;;;;;;;;;;;;;;;7.15;100.00;96288.28;5107841;28;19951;-87
2023/11/16 10:00:58;;;;;;;;;;;;;;;7.15;100.00;96280.47;5105892;28;20262;-72
2023/11/16 10:03:31;;;;;;;;;;;;;;;7.16;100.00;96271.63;5123018;28;19969;-82
2023/11/16 10:05:57;;;;;;;;;;;;;;;7.16;100.00;96267.22;5123073;28;19941;-82
2023/11/16 10:08:25;;;;;;;;;;;;;;;7.20;100.00;96265.00;5122907;28;19945;-83
2023/11/16 10:10:52;;;;;;;;;;;;;;;7.23;100.00;96265.41;5087936;28;19938;-82
2023/11/16 10:13:18;;;;;;;;;;;;;;;7.23;100.00;96251.59;5105747;28;20115;-82
2023/11/16 10:15:45;;;;;;;;;;;;;;;7.21;100.00;96249.16;5122176;28;19939;-82
2023/11/16 10:18:11;;;;;;;;;;;;;;;7.23;100.00;96244.56;5122748;28;19942;-82
2023/11/16 10:20:43;;;;;;;;;;;;;;;7.26;100.00;96227.69;5087963;28;19947;-76
2023/11/16 10:23:12;;;;;;;;;;;;;;;7.27;100.00;96218.88;5121823;28;19954;-74
2023/11/16 10:25:39;;;;;;;;;;;;;;;7.27;100.00;96201.41;5121822;28;19944;-74
2023/11/16 10:28:15;;;;;;;;;;;;;;;7.28;100.00;96197.78;5105145;28;19935;-74
2023/11/16 10:30:45;;;;;;;;;;;;;;;7.26;100.00;96184.16;5122057;28;20232;-75
2023/11/16 10:33:10;;;;;;;;;;;;;;;7.25;100.00;96173.94;5121554;28;19938;-74
2023/11/16 10:35:38;;;;;;;;;;;;;;;7.27;100.00;96161.50;5121654;28;19939;-74
2023/11/16 10:38:06;;;;;;;;;;;;;;;7.26;100.00;96157.28;5121430;28;20163;-83
2023/11/16 10:40:34;;;;;;;;;;;;;;;7.26;100.00;96150.25;5106457;28;19939;-86
2023/11/16 10:43:01;;;;;;;;;;;;;;;7.28;100.00;96150.84;5105193;28;19969;-86
2023/11/16 10:45:27;;;;;;;;;;;;;;;7.30;100.00;96132.38;5087579;28;20247;-86
2023/11/16 10:47:53;;;;;;;;;;;;;;;7.30;100.00;96124.56;5088356;28;20110;-85
2023/11/16 10:50:19;;;;;;;;;;;;;;;7.43;100.00;96116.72;5122042;28;19942;-86
2023/11/16 10:52:47;;;;;;;;;;;;;;;7.53;100.00;96101.41;5088052;28;20040;-86
2023/11/16 10:55:19;;;;;;;;;;;;;;;7.57;100.00;96080.91;5104984;28;20231;-77
2023/11/16 10:57:48;;;;;;;;;;;;;;;7.55;100.00;96069.88;5106214;28;19939;-87
2023/11/16 11:00:16;;;;;;;;;;;;;;;7.54;100.00;96057.88;5104161;28;20231;-77
2023/11/16 11:02:49;;;;;;;;;;;;;;;7.56;100.00;96053.25;5104782;28;19945;-77
2023/11/16 11:05:19;;;;;;;;;;;;;;;7.59;100.00;96052.81;5121353;28;19943;-77
2023/11/16 11:07:46;;;;;;;;;;;;;;;7.62;100.00;96034.13;5105137;28;19934;-77
2023/11/16 11:10:13;;;;;;;;;;;;;;;7.67;100.00;96023.88;5121790;28;20203;-77
2023/11/16 11:12:42;;;;;;;;;;;;;;;7.67;100.00;96023.88;5104788;28;19943;-77
2023/11/16 11:15:11;;;;;;;;;;;;;;;7.71;100.00;96019.03;5121537;28;20116;-77
2023/11/16 11:17:41;;;;;;;;;;;;;;;7.80;100.00;96004.72;5120733;28;19949;-82
2023/11/16 11:20:09;;;;;;;;;;;;;;;7.89;100.00;95989.59;5104480;28;19938;-83
2023/11/16 11:22:36;;;;;;;;;;;;;;;7.93;100.00;95988.16;5105132;28;19952;-83
2023/11/16 11:25:12;;;;;;;;;;;;;;;7.98;100.00;95998.78;5104715;28;19966;-83
2023/11/16 11:27:39;;;;;;;;;;;;;;;7.97;100.00;95998.97;5120869;28;20242;-82
2023/11/16 11:30:13;;;;;;;;;;;;;;;7.94;100.00;95979.31;5120511;28;19958;-83
2023/11/16 11:32:43;;;;;;;;;;;;;;;7.86;100.00;95972.53;5121278;28;19943;-80
2023/11/16 11:35:11;;;;;;;;;;;;;;;7.80;100.00;95959.53;5121244;28;19939;-80
2023/11/16 11:37:38;;;;;;;;;;;;;;;7.83;100.00;95951.28;5120286;28;19976;-78
2023/11/16 11:40:08;;;;;;;;;;;;;;;8.29;100.00;95931.81;5105058;28;20247;-78
2023/11/16 11:42:37;;;;;;;;;;;;;;;8.59;100.00;95913.66;5120366;28;19940;-81
2023/11/16 11:45:04;;;;;;;;;;;;;;;8.59;100.00;95928.50;5120986;28;19961;-82
2023/11/16 11:47:32;;;;;;;;;;;;;;;8.53;100.00;95931.00;5103249;28;19951;-81
2023/11/16 11:49:58;;;;;;;;;;;;;;;8.42;100.00;95916.03;5120981;28;20241;-81
2023/11/16 11:52:27;;;;;;;;;;;;;;;8.30;100.00;95917.75;5104321;28;19940;-82
2023/11/16 11:54:53;;;;;;;;;;;;;;;8.20;100.00;95915.63;5087064;28;19948;-76
2023/11/16 11:57:19;;;;;;;;;;;;;;;8.14;100.00;95901.59;5104449;28;19942;-76
2023/11/16 11:59:45;;;;;;;;;;;;;;;8.04;100.00;95854.31;5120712;28;19946;-78
2023/11/16 12:02:11;;;;;;;;;;;;;;;7.95;100.00;95832.09;5104343;28;20251;-77
2023/11/16 12:04:39;;;;;;;;;;;;;;;7.88;100.00;95840.00;5065407;28;19964;-77
2023/11/16 12:07:07;;;;;;;;;;;;;;;7.88;100.00;95841.81;5065612;28;19938;-76
2023/11/16 12:09:44;;;;;;;;;;;;;;;7.91;100.00;95852.59;5065537;28;20015;-82
2023/11/16 12:12:10;;;;;;;;;;;;;;;8.00;100.00;95866.19;5048840;28;20231;-76
2023/11/16 12:14:48;;;;;;;;;;;;;;;8.08;100.00;95850.25;5082950;28;20011;-76
2023/11/16 12:17:17;;;;;;;;;;;;;;;8.11;100.00;95841.19;5082444;28;19942;-76
2023/11/16 12:19:51;;;;;;;;;;;;;;;8.12;100.00;95893.16;5082258;28;19979;-76
2023/11/16 12:22:20;;;;;;;;;;;;;;;8.11;100.00;95894.19;5082668;28;19941;-76
2023/11/16 12:24:49;;;;;;;;;;;;;;;8.10;100.00;95930.97;5082052;28;19965;-76
2023/11/16 12:27:16;;;;;;;;;;;;;;;8.07;100.00;95926.97;5065968;28;19954;-79
2023/11/16 12:29:52;;;;;;;;;;;;;;;8.00;100.00;95900.16;5065988;28;19963;-85
2023/11/16 12:32:18;;;;;;;;;;;;;;;7.95;100.00;95876.47;5082521;28;19949;-77
2023/11/16 12:34:44;;;;;;;;;;;;;;;7.91;100.00;95894.38;5071317;28;19952;-77
2023/11/16 12:37:10;;;;;;;;;;;;;;;7.88;100.00;95881.75;5108161;28;20223;-77
2023/11/16 12:39:36;;;;;;;;;;;;;;;7.87;100.00;95905.47;5108814;28;19945;-77
2023/11/16 12:42:07;;;;;;;;;;;;;;;7.83;100.00;95912.13;5123939;28;19944;-77
2023/11/16 12:44:32;;;;;;;;;;;;;;;7.75;100.00;95913.19;5108803;28;20124;-76
2023/11/16 12:46:59;;;;;;;;;;;;;;;7.67;100.00;95900.41;5108666;28;19932;-86
2023/11/16 12:49:25;;;;;;;;;;;;;;;7.64;100.00;95885.16;5106518;28;19939;-80